createdAt,value
2017-07-16T00:01:52.731Z,10.07
2017-07-16T00:04:21.768Z,8.20
2017-07-16T00:06:49.988Z,7.87
2017-07-16T00:09:18.992Z,7.50
2017-07-16T00:11:48.009Z,8.27
2017-07-16T00:14:16.250Z,7.43
2017-07-16T00:16:45.274Z,8.13
2017-07-16T00:19:13.525Z,7.90
2017-07-16T00:21:42.565Z,8.20
2017-07-16T00:24:10.801Z,8.07
2017-07-16T00:26:39.049Z,7.17
2017-07-16T00:29:07.297Z,8.30
2017-07-16T00:31:35.553Z,7.37
2017-07-16T00:34:03.791Z,8.67
2017-07-16T00:36:32.851Z,7.63
2017-07-16T00:39:01.097Z,6.90
2017-07-16T00:41:29.402Z,5.83
2017-07-16T00:43:57.646Z,6.00
2017-07-16T00:46:25.918Z,6.30
2017-07-16T00:48:54.200Z,7.80
2017-07-16T00:51:22.440Z,6.03
2017-07-16T00:53:51.571Z,10.13
2017-07-16T00:56:19.848Z,6.47
2017-07-16T00:58:48.122Z,7.17
2017-07-16T01:01:16.354Z,7.13
2017-07-16T01:03:45.390Z,7.73
2017-07-16T01:06:13.609Z,6.53
2017-07-16T01:08:42.673Z,7.23
2017-07-16T01:11:10.915Z,7.47
2017-07-16T01:13:39.170Z,7.17
2017-07-16T01:16:08.226Z,7.40
2017-07-16T01:18:36.517Z,7.47
2017-07-16T01:21:04.767Z,6.80
2017-07-16T01:23:33.028Z,7.10
2017-07-16T01:26:01.269Z,7.20
2017-07-16T01:28:29.573Z,7.77
2017-07-16T01:30:57.882Z,7.27
2017-07-16T01:33:26.150Z,9.13
2017-07-16T01:35:54.459Z,8.03
2017-07-16T01:38:23.481Z,7.30
2017-07-16T01:40:51.774Z,7.40
2017-07-16T01:43:20.054Z,7.53
2017-07-16T01:45:48.306Z,7.00
2017-07-16T01:48:16.550Z,8.30
2017-07-16T01:50:45.566Z,7.43
2017-07-16T01:53:13.827Z,8.10
2017-07-16T01:55:42.964Z,8.43
2017-07-16T01:58:11.201Z,10.30
2017-07-16T02:00:40.225Z,10.43
2017-07-16T02:03:08.469Z,10.00
2017-07-16T02:05:37.598Z,9.63
2017-07-16T02:08:05.851Z,9.43
2017-07-16T02:10:34.117Z,9.43
2017-07-16T02:13:02.377Z,8.63
2017-07-16T02:15:31.402Z,9.37
2017-07-16T02:17:59.638Z,9.33
2017-07-16T02:20:28.657Z,7.90
2017-07-16T02:22:56.901Z,9.27
2017-07-16T02:25:25.146Z,8.00
2017-07-16T02:27:53.382Z,7.70
2017-07-16T02:30:21.659Z,7.73
2017-07-16T02:32:49.897Z,7.93
2017-07-16T02:35:18.181Z,8.90
2017-07-16T02:37:46.838Z,8.10
2017-07-16T02:40:15.093Z,8.10
2017-07-16T02:42:43.323Z,10.00
2017-07-16T02:45:12.341Z,10.10
2017-07-16T02:47:40.592Z,7.53
2017-07-16T02:50:09.617Z,7.93
2017-07-16T02:52:37.854Z,8.10
2017-07-16T02:55:06.892Z,7.40
2017-07-16T02:57:35.141Z,7.60
2017-07-16T03:00:03.383Z,7.77
2017-07-16T03:02:31.621Z,8.63
2017-07-16T03:04:59.874Z,8.60
2017-07-16T03:07:28.971Z,7.20
2017-07-16T03:09:57.226Z,7.70
2017-07-16T03:12:25.453Z,6.70
2017-07-16T03:14:53.930Z,7.13
2017-07-16T03:17:22.207Z,7.63
2017-07-16T03:19:50.446Z,7.90
2017-07-16T03:22:18.710Z,7.13
2017-07-16T03:24:47.727Z,6.60
2017-07-16T03:27:16.011Z,8.73
2017-07-16T03:29:44.247Z,7.60
2017-07-16T03:32:13.264Z,7.87
2017-07-16T03:34:41.503Z,7.60
2017-07-16T03:37:10.540Z,7.33
2017-07-16T03:39:38.799Z,7.60
2017-07-16T03:42:07.093Z,7.13
2017-07-16T03:44:35.332Z,6.63
2017-07-16T03:47:04.359Z,6.27
2017-07-16T03:49:32.637Z,6.27
2017-07-16T03:52:00.931Z,6.53
2017-07-16T03:54:29.159Z,7.10
2017-07-16T03:56:58.179Z,6.80
2017-07-16T03:59:26.461Z,6.40
2017-07-16T04:01:54.723Z,6.23
2017-07-16T04:04:22.956Z,7.63
2017-07-16T04:06:51.206Z,8.53
2017-07-16T04:09:19.477Z,6.97
2017-07-16T04:11:47.703Z,7.30
2017-07-16T04:14:16.013Z,8.43
2017-07-16T04:16:44.242Z,7.80
2017-07-16T04:19:13.258Z,6.57
2017-07-16T04:21:41.503Z,7.70
2017-07-16T04:24:10.526Z,7.50
2017-07-16T04:26:38.775Z,9.37
2017-07-16T04:29:07.018Z,10.10
2017-07-16T04:31:35.293Z,9.00
2017-07-16T04:34:03.530Z,6.77
2017-07-16T04:36:31.774Z,7.40
2017-07-16T04:39:00.026Z,7.17
2017-07-16T04:41:28.259Z,7.13
2017-07-16T04:43:56.550Z,7.03
2017-07-16T04:46:24.790Z,7.17
2017-07-16T04:48:53.069Z,9.23
2017-07-16T04:51:21.282Z,6.77
2017-07-16T04:53:49.543Z,6.50
2017-07-16T04:56:17.779Z,6.97
2017-07-16T04:58:46.794Z,6.93
2017-07-16T05:01:15.042Z,7.40
2017-07-16T05:03:43.347Z,9.30
2017-07-16T05:06:11.601Z,6.17
2017-07-16T05:08:40.616Z,6.27
2017-07-16T05:11:08.863Z,10.13
2017-07-16T05:13:37.102Z,7.53
2017-07-16T05:16:05.338Z,7.23
2017-07-16T05:18:33.630Z,7.13
2017-07-16T05:21:02.043Z,7.07
2017-07-16T05:23:30.280Z,7.00
2017-07-16T05:25:58.560Z,6.90
2017-07-16T05:28:26.800Z,7.30
2017-07-16T05:30:55.815Z,6.27
2017-07-16T05:33:24.054Z,8.77
2017-07-16T05:35:52.339Z,7.10
2017-07-16T05:38:20.658Z,7.30
2017-07-16T05:40:48.918Z,6.73
2017-07-16T05:43:17.165Z,7.70
2017-07-16T05:45:46.182Z,7.20
2017-07-16T05:48:14.429Z,7.57
2017-07-16T05:50:43.510Z,8.63
2017-07-16T05:53:11.768Z,7.53
2017-07-16T05:55:40.018Z,7.63
2017-07-16T05:58:08.261Z,6.80
2017-07-16T06:00:36.517Z,7.77
2017-07-16T06:03:04.772Z,6.80
2017-07-16T06:05:33.048Z,7.20
2017-07-16T06:08:01.263Z,7.60
2017-07-16T06:10:29.669Z,7.50
2017-07-16T06:12:57.906Z,6.33
2017-07-16T06:15:26.926Z,8.50
2017-07-16T06:17:55.186Z,7.53
2017-07-16T06:20:23.447Z,7.43
2017-07-16T06:22:52.484Z,7.83
2017-07-16T06:25:20.858Z,8.77
2017-07-16T06:27:49.171Z,7.83
2017-07-16T06:30:17.510Z,6.93
2017-07-16T06:32:45.768Z,7.03
2017-07-16T06:35:14.025Z,11.10
2017-07-16T06:37:43.050Z,6.67
2017-07-16T06:40:11.285Z,8.70
2017-07-16T06:42:40.323Z,7.53
2017-07-16T06:45:08.601Z,7.03
2017-07-16T06:47:36.850Z,6.83
2017-07-16T06:50:05.100Z,5.77
2017-07-16T06:52:33.541Z,6.20
2017-07-16T06:55:01.773Z,6.50
2017-07-16T06:57:30.886Z,8.33
2017-07-16T06:59:59.126Z,5.87
2017-07-16T07:02:28.146Z,6.73
2017-07-16T07:04:56.389Z,7.80
2017-07-16T07:07:24.645Z,6.23
2017-07-16T07:09:52.889Z,7.17
2017-07-16T07:12:21.134Z,7.37
2017-07-16T07:14:50.456Z,7.17
2017-07-16T07:17:18.719Z,6.00
2017-07-16T07:19:47.067Z,7.57
2017-07-16T07:22:15.291Z,7.03
2017-07-16T07:24:43.535Z,7.37
2017-07-16T07:27:12.564Z,6.50
2017-07-16T07:29:40.853Z,6.73
2017-07-16T07:32:09.193Z,5.63
2017-07-16T07:34:38.182Z,6.70
2017-07-16T07:37:06.450Z,6.83
2017-07-16T07:39:34.726Z,10.20
2017-07-16T07:42:02.975Z,6.63
2017-07-16T07:44:31.234Z,6.80
2017-07-16T07:46:59.483Z,8.70
2017-07-16T07:49:27.732Z,5.70
2017-07-16T07:51:56.014Z,5.57
2017-07-16T07:54:25.003Z,8.97
2017-07-16T07:56:53.273Z,8.10
2017-07-16T07:59:21.522Z,7.53
2017-07-16T08:01:53.114Z,6.23
2017-07-16T08:04:21.375Z,6.10
2017-07-16T08:06:50.361Z,5.37
2017-07-16T08:09:18.638Z,6.73
2017-07-16T08:11:47.649Z,5.10
2017-07-16T08:14:15.901Z,7.67
2017-07-16T08:16:44.902Z,6.60
2017-07-16T08:19:13.199Z,4.87
2017-07-16T08:21:41.451Z,5.40
2017-07-16T08:24:10.496Z,4.83
2017-07-16T08:26:38.745Z,5.13
2017-07-16T08:29:06.995Z,4.90
2017-07-16T08:31:35.240Z,5.03
2017-07-16T08:34:03.493Z,5.50
2017-07-16T08:36:31.730Z,6.77
2017-07-16T08:38:59.994Z,4.70
2017-07-16T08:41:29.029Z,6.40
2017-07-16T08:43:57.281Z,8.37
2017-07-16T08:46:25.526Z,5.00
2017-07-16T08:48:54.575Z,6.80
2017-07-16T08:51:22.822Z,6.77
2017-07-16T08:53:51.105Z,5.27
2017-07-16T08:56:19.350Z,7.03
2017-07-16T08:58:48.378Z,6.00
2017-07-16T09:01:16.622Z,5.60
2017-07-16T09:03:44.868Z,7.33
2017-07-16T09:06:13.115Z,3.97
2017-07-16T09:08:41.346Z,8.60
2017-07-16T09:11:09.610Z,3.50
2017-07-16T09:13:37.884Z,4.13
2017-07-16T09:16:06.115Z,5.30
2017-07-16T09:18:34.342Z,4.57
2017-07-16T09:21:03.398Z,4.87
2017-07-16T09:23:31.645Z,3.87
2017-07-16T09:25:59.893Z,5.23
2017-07-16T09:28:28.149Z,4.50
2017-07-16T09:30:56.375Z,4.30
2017-07-16T09:33:24.644Z,4.00
2017-07-16T09:35:52.962Z,2.80
2017-07-16T09:38:21.229Z,5.00
2017-07-16T09:40:49.492Z,3.30
2017-07-16T09:43:17.730Z,3.47
2017-07-16T09:45:46.040Z,3.73
2017-07-16T09:48:14.297Z,3.27
2017-07-16T09:50:42.583Z,4.40
2017-07-16T09:53:10.855Z,5.60
2017-07-16T09:55:39.110Z,6.57
2017-07-16T09:58:07.390Z,4.03
2017-07-16T10:00:35.773Z,3.60
2017-07-16T10:03:04.094Z,4.30
2017-07-16T10:05:32.389Z,2.90
2017-07-16T10:08:01.453Z,3.33
2017-07-16T10:10:29.707Z,4.23
2017-07-16T10:12:57.957Z,4.83
2017-07-16T10:15:26.218Z,3.50
2017-07-16T10:17:54.472Z,4.00
2017-07-16T10:20:22.757Z,3.40
2017-07-16T10:22:51.005Z,2.87
2017-07-16T10:25:19.323Z,7.47
2017-07-16T10:27:47.572Z,3.77
2017-07-16T10:30:15.959Z,5.70
2017-07-16T10:32:44.230Z,3.33
2017-07-16T10:35:12.478Z,3.93
2017-07-16T10:37:40.730Z,3.47
2017-07-16T10:40:08.973Z,3.47
2017-07-16T10:42:38.016Z,4.50
2017-07-16T10:45:06.249Z,4.73
2017-07-16T10:47:34.502Z,4.73
2017-07-16T10:50:03.530Z,5.27
2017-07-16T10:52:31.782Z,3.67
2017-07-16T10:55:00.789Z,3.30
2017-07-16T10:57:29.073Z,4.47
2017-07-16T10:59:57.349Z,6.07
2017-07-16T11:02:25.614Z,4.97
2017-07-16T11:04:53.912Z,3.70
2017-07-16T11:07:22.158Z,5.23
2017-07-16T11:09:51.154Z,4.50
2017-07-16T11:12:19.453Z,5.97
2017-07-16T11:14:47.722Z,3.67
2017-07-16T11:17:15.961Z,3.40
2017-07-16T11:19:45.073Z,4.33
2017-07-16T11:22:13.282Z,3.80
2017-07-16T11:24:41.549Z,3.17
2017-07-16T11:27:09.797Z,5.17
2017-07-16T11:29:38.051Z,4.00
2017-07-16T11:32:07.068Z,3.30
2017-07-16T11:34:35.422Z,3.30
2017-07-16T11:37:03.650Z,3.90
2017-07-16T11:39:31.917Z,3.90
2017-07-16T11:42:00.343Z,3.57
2017-07-16T11:44:28.666Z,3.77
2017-07-16T11:46:56.931Z,3.60
2017-07-16T11:49:25.183Z,2.87
2017-07-16T11:51:54.201Z,3.67
2017-07-16T11:54:22.499Z,6.87
2017-07-16T11:56:50.733Z,3.73
2017-07-16T11:59:19.783Z,3.70
2017-07-16T12:01:48.027Z,3.70
2017-07-16T12:04:16.292Z,5.03
2017-07-16T12:06:44.545Z,4.93
2017-07-16T12:09:13.583Z,5.40
2017-07-16T12:11:41.857Z,5.00
2017-07-16T12:14:10.125Z,3.23
2017-07-16T12:16:38.366Z,4.07
2017-07-16T12:19:07.421Z,3.07
2017-07-16T12:21:35.658Z,2.93
2017-07-16T12:24:03.901Z,2.70
2017-07-16T12:26:32.917Z,3.17
2017-07-16T12:29:01.164Z,2.53
2017-07-16T12:31:29.409Z,3.07
2017-07-16T12:33:57.719Z,3.87
2017-07-16T12:36:25.971Z,4.43
2017-07-16T12:38:54.255Z,3.80
2017-07-16T12:41:22.498Z,4.13
2017-07-16T12:43:50.741Z,3.37
2017-07-16T12:46:19.749Z,3.70
2017-07-16T12:48:47.990Z,3.70
2017-07-16T12:51:16.279Z,5.23
2017-07-16T12:53:45.275Z,3.60
2017-07-16T12:56:13.529Z,5.70
2017-07-16T12:58:41.762Z,4.47
2017-07-16T13:01:10.017Z,3.60
2017-07-16T13:03:38.264Z,3.53
2017-07-16T13:06:07.285Z,4.17
2017-07-16T13:08:35.527Z,4.17
2017-07-16T13:11:03.770Z,3.70
2017-07-16T13:13:32.027Z,5.23
2017-07-16T13:16:00.297Z,5.83
2017-07-16T13:18:28.534Z,3.97
2017-07-16T13:20:57.555Z,4.30
2017-07-16T13:23:25.785Z,3.60
2017-07-16T13:25:54.818Z,4.40
2017-07-16T13:28:23.062Z,4.00
2017-07-16T13:30:52.165Z,5.40
2017-07-16T13:33:20.406Z,3.97
2017-07-16T13:35:48.656Z,3.70
2017-07-16T13:38:16.911Z,3.50
2017-07-16T13:40:45.252Z,4.70
2017-07-16T13:43:13.477Z,4.77
2017-07-16T13:45:41.725Z,4.03
2017-07-16T13:48:09.975Z,3.60
2017-07-16T13:50:38.224Z,5.10
2017-07-16T13:53:06.477Z,7.67
2017-07-16T13:55:34.722Z,5.07
2017-07-16T13:58:03.739Z,3.87
2017-07-16T14:00:32.104Z,5.43
2017-07-16T14:03:00.361Z,5.70
2017-07-16T14:05:29.381Z,6.03
2017-07-16T14:07:57.626Z,3.93
2017-07-16T14:10:26.656Z,5.27
2017-07-16T14:12:54.929Z,5.87
2017-07-16T14:15:23.154Z,4.93
2017-07-16T14:17:51.397Z,5.70
2017-07-16T14:20:19.713Z,3.90
2017-07-16T14:22:47.935Z,6.23
2017-07-16T14:25:16.179Z,4.23
2017-07-16T14:27:44.430Z,4.13
2017-07-16T14:30:12.684Z,3.53
2017-07-16T14:32:40.930Z,3.83
2017-07-16T14:35:09.176Z,4.10
2017-07-16T14:37:38.243Z,4.20
2017-07-16T14:40:06.496Z,4.27
2017-07-16T14:42:34.763Z,5.37
2017-07-16T14:45:03.000Z,4.40
2017-07-16T14:47:31.234Z,4.87
2017-07-16T14:49:59.491Z,3.60
2017-07-16T14:52:27.726Z,4.10
2017-07-16T14:54:55.986Z,3.73
2017-07-16T14:57:25.006Z,4.00
2017-07-16T14:59:53.261Z,5.80
2017-07-16T15:02:21.515Z,4.70
2017-07-16T15:04:49.761Z,5.93
2017-07-16T15:07:18.062Z,8.03
2017-07-16T15:09:46.328Z,3.47
2017-07-16T15:12:14.585Z,3.77
2017-07-16T15:14:42.841Z,5.20
2017-07-16T15:17:11.080Z,3.77
2017-07-16T15:19:40.334Z,3.90
2017-07-16T15:22:09.353Z,4.90
2017-07-16T15:24:39.112Z,6.40
2017-07-16T15:27:08.652Z,3.10
2017-07-16T15:29:37.673Z,4.10
2017-07-16T15:32:07.473Z,2.90
2017-07-16T15:34:36.466Z,4.83
2017-07-16T15:37:05.028Z,3.30
2017-07-16T15:39:33.846Z,4.63
2017-07-16T15:42:02.517Z,4.67
2017-07-16T15:44:31.053Z,4.93
2017-07-16T15:47:00.770Z,4.23
2017-07-16T15:49:29.693Z,3.77
2017-07-16T15:51:58.041Z,4.37
2017-07-16T15:54:26.327Z,3.93
2017-07-16T15:56:54.572Z,7.23
2017-07-16T15:59:22.835Z,7.60
2017-07-16T16:01:51.209Z,5.37
2017-07-16T16:04:19.437Z,7.53
2017-07-16T16:06:47.733Z,4.50
2017-07-16T16:09:15.981Z,5.90
2017-07-16T16:11:44.235Z,4.63
2017-07-16T16:14:12.500Z,4.33
2017-07-16T16:16:40.823Z,3.83
2017-07-16T16:19:09.082Z,5.90
2017-07-16T16:21:37.384Z,5.10
2017-07-16T16:24:05.625Z,3.40
2017-07-16T16:26:33.914Z,5.50
2017-07-16T16:29:02.139Z,4.27
2017-07-16T16:31:31.157Z,4.77
2017-07-16T16:33:59.413Z,5.70
2017-07-16T16:36:27.759Z,4.10
2017-07-16T16:38:56.092Z,5.53
2017-07-16T16:41:24.342Z,4.50
2017-07-16T16:43:52.623Z,6.80
2017-07-16T16:46:21.634Z,4.50
2017-07-16T16:48:49.893Z,6.73
2017-07-16T16:51:18.141Z,5.33
2017-07-16T16:53:47.177Z,4.23
2017-07-16T16:56:15.429Z,4.33
2017-07-16T16:58:43.681Z,5.53
2017-07-16T17:01:12.002Z,5.27
2017-07-16T17:03:40.254Z,6.43
2017-07-16T17:06:08.522Z,5.40
2017-07-16T17:08:36.833Z,4.00
2017-07-16T17:11:05.098Z,4.70
2017-07-16T17:13:33.341Z,4.23
2017-07-16T17:16:02.369Z,5.90
2017-07-16T17:18:30.614Z,4.97
2017-07-16T17:20:59.658Z,4.83
2017-07-16T17:23:27.910Z,4.80
2017-07-16T17:25:56.194Z,3.90
2017-07-16T17:28:24.485Z,4.40
2017-07-16T17:30:52.717Z,6.30
2017-07-16T17:33:20.980Z,6.10
2017-07-16T17:35:49.253Z,6.27
2017-07-16T17:38:18.282Z,5.70
2017-07-16T17:40:46.654Z,5.73
2017-07-16T17:43:14.938Z,6.43
2017-07-16T17:45:43.178Z,4.30
2017-07-16T17:48:12.194Z,4.60
2017-07-16T17:50:40.433Z,6.97
2017-07-16T17:53:08.722Z,5.47
2017-07-16T17:55:36.965Z,6.13
2017-07-16T17:58:05.225Z,5.33
2017-07-16T18:00:33.480Z,5.67
2017-07-16T18:03:01.718Z,6.23
2017-07-16T18:05:30.752Z,6.40
2017-07-16T18:07:59.009Z,7.70
2017-07-16T18:10:27.365Z,7.30
2017-07-16T18:12:55.589Z,4.93
2017-07-16T18:15:23.847Z,5.80
2017-07-16T18:17:52.130Z,5.50
2017-07-16T18:20:20.369Z,5.00
2017-07-16T18:22:49.397Z,4.13
2017-07-16T18:25:17.670Z,6.80
2017-07-16T18:27:45.911Z,6.30
2017-07-16T18:30:15.006Z,5.50
2017-07-16T18:32:44.036Z,7.20
2017-07-16T18:35:12.294Z,6.70
2017-07-16T18:37:40.554Z,8.70
2017-07-16T18:40:09.569Z,7.17
2017-07-16T18:42:37.942Z,4.40
2017-07-16T18:45:06.979Z,5.80
2017-07-16T18:47:35.230Z,5.03
2017-07-16T18:50:03.562Z,7.57
2017-07-16T18:52:32.620Z,6.47
2017-07-16T18:55:00.895Z,8.20
2017-07-16T18:57:29.131Z,4.63
2017-07-16T18:59:57.392Z,6.40
2017-07-16T19:02:26.425Z,8.33
2017-07-16T19:04:54.673Z,5.67
2017-07-16T19:07:22.912Z,9.40
2017-07-16T19:09:51.153Z,4.93
2017-07-16T19:12:19.430Z,4.70
2017-07-16T19:14:47.681Z,4.30
2017-07-16T19:17:15.921Z,4.53
2017-07-16T19:19:44.965Z,7.40
2017-07-16T19:22:13.234Z,5.47
2017-07-16T19:24:41.921Z,6.87
2017-07-16T19:27:10.154Z,6.77
2017-07-16T19:29:39.170Z,5.13
2017-07-16T19:32:07.447Z,5.57
2017-07-16T19:34:35.696Z,6.00
2017-07-16T19:37:04.715Z,6.90
2017-07-16T19:39:33.800Z,5.70
2017-07-16T19:42:02.057Z,6.33
2017-07-16T19:44:30.294Z,5.97
2017-07-16T19:46:58.536Z,5.30
2017-07-16T19:49:26.794Z,4.60
2017-07-16T19:51:55.870Z,5.27
2017-07-16T19:54:24.114Z,5.00
2017-07-16T19:56:52.511Z,4.93
2017-07-16T19:59:20.752Z,5.30
2017-07-16T20:01:49.050Z,5.83
2017-07-16T20:04:17.278Z,9.33
2017-07-16T20:06:45.569Z,5.60
2017-07-16T20:09:13.819Z,6.20
2017-07-16T20:11:42.885Z,6.50
2017-07-16T20:14:11.125Z,5.10
2017-07-16T20:16:39.608Z,5.50
2017-07-16T20:19:08.085Z,7.07
2017-07-16T20:21:37.329Z,6.83
2017-07-16T20:24:06.704Z,5.60
2017-07-16T20:26:35.177Z,5.60
2017-07-16T20:29:03.448Z,5.70
2017-07-16T20:31:31.789Z,5.50
2017-07-16T20:34:00.038Z,5.27
2017-07-16T20:36:28.286Z,4.97
2017-07-16T20:38:56.597Z,5.83
2017-07-16T20:41:25.058Z,7.30
2017-07-16T20:43:53.599Z,7.60
2017-07-16T20:46:22.008Z,6.07
2017-07-16T20:48:50.241Z,6.40
2017-07-16T20:51:18.497Z,6.90
2017-07-16T20:53:47.513Z,11.47
2017-07-16T20:56:15.766Z,5.90
2017-07-16T20:58:44.791Z,6.50
2017-07-16T21:01:13.042Z,6.63
2017-07-16T21:03:41.393Z,6.90
2017-07-16T21:06:09.637Z,6.47
2017-07-16T21:08:37.891Z,6.13
2017-07-16T21:11:06.245Z,7.63
2017-07-16T21:13:34.504Z,6.63
2017-07-16T21:16:03.518Z,6.43
2017-07-16T21:18:31.806Z,6.90
2017-07-16T21:21:00.047Z,6.93
2017-07-16T21:23:28.297Z,5.80
2017-07-16T21:25:56.594Z,9.10
2017-07-16T21:28:24.849Z,6.60
2017-07-16T21:30:53.102Z,7.10
2017-07-16T21:33:21.348Z,7.80
2017-07-16T21:35:49.578Z,6.63
2017-07-16T21:38:17.829Z,7.20
2017-07-16T21:40:46.112Z,7.73
2017-07-16T21:43:14.393Z,8.50
2017-07-16T21:45:42.632Z,8.83
2017-07-16T21:48:10.902Z,7.27
2017-07-16T21:50:39.148Z,9.03
2017-07-16T21:53:07.396Z,7.63
2017-07-16T21:55:35.635Z,7.13
2017-07-16T21:58:03.943Z,7.00
2017-07-16T22:00:32.194Z,8.77
2017-07-16T22:03:00.451Z,8.67
2017-07-16T22:05:29.448Z,9.63
2017-07-16T22:07:57.738Z,8.07
2017-07-16T22:10:25.993Z,8.53
2017-07-16T22:12:55.068Z,7.10
2017-07-16T22:15:23.281Z,8.07
2017-07-16T22:17:51.534Z,7.17
2017-07-16T22:20:19.809Z,7.03
2017-07-16T22:22:48.057Z,6.93
2017-07-16T22:25:16.303Z,8.10
2017-07-16T22:27:44.551Z,8.50
2017-07-16T22:30:12.837Z,6.67
2017-07-16T22:32:41.132Z,7.10
2017-07-16T22:35:09.410Z,7.97
2017-07-16T22:37:37.664Z,7.47
2017-07-16T22:40:05.916Z,8.80
2017-07-16T22:42:34.238Z,7.40
2017-07-16T22:45:02.485Z,6.70
2017-07-16T22:47:30.742Z,7.77
2017-07-16T22:49:59.097Z,7.87
2017-07-16T22:52:27.335Z,7.47
2017-07-16T22:54:55.585Z,8.07
2017-07-16T22:57:23.858Z,7.70
2017-07-16T22:59:52.126Z,7.83
2017-07-16T23:02:20.368Z,7.30
2017-07-16T23:04:48.623Z,7.83
2017-07-16T23:07:16.921Z,7.60
2017-07-16T23:09:45.150Z,8.77
2017-07-16T23:12:13.382Z,7.40
2017-07-16T23:14:42.410Z,7.43
2017-07-16T23:17:10.658Z,7.50
2017-07-16T23:19:38.886Z,8.43
2017-07-16T23:22:07.140Z,6.27
2017-07-16T23:24:35.390Z,8.53
2017-07-16T23:27:03.646Z,8.63
2017-07-16T23:29:32.686Z,8.47
2017-07-16T23:32:00.987Z,7.77
2017-07-16T23:34:29.231Z,7.83
2017-07-16T23:36:57.484Z,8.23
2017-07-16T23:39:25.728Z,8.30
2017-07-16T23:41:53.971Z,7.97
2017-07-16T23:44:22.206Z,7.17
2017-07-16T23:46:50.464Z,7.80
2017-07-16T23:49:19.500Z,9.23
2017-07-16T23:51:47.750Z,7.50
2017-07-16T23:54:15.996Z,7.37
2017-07-16T23:56:44.234Z,7.67
2017-07-16T23:59:12.486Z,7.37
